Pagrindinis puslapis
METAR-TAF:

METAR-TAF

Oro uostai :

Jelivarė, Švedija

platuma: 67-09N, ilguma: 020-39E, Aukštis: 359 m

Dabartinis oras

Ataskaita buvo paskelbta 23 minutes, ne 01:50 UTC
Vėjas 9 kt iš Vakarų
Temperatūra -8°C
Drėgmė 67%
Slėgis 985 hPa
Matomumas 10 km arba daugiau

METAR: ESNG 200150Z AUTO 28009KT 9999 NCD M08/M13 Q0985

Laikas: 03:13 (02:13 UTC)

Prognozė

Ataskaita buvo paskelbta 8 valandos ir 43 minutes, ne 17:30 UTC
Prognozė galioja nuo 19 metu 18 UTC su 19 metu 22 UTC
Vėjas 8 kt iš Vakarų/Šiaurės Vakarų
Matomumas 10 km arba daugiau
nėra debesų žemiau 1500 m ir nėra kamuolinių lietaus debesų

TAF: ESNG 191730Z 1918/1922 30008KT CAVOK

Orai ataskaitas ir orų prognozės (METAR, TAF).

turimą stotys yra geltonos ir raudonos taškus žemėlapyje.

Perkelti pele per norėdami pamatyti stoties vardą.

Tada spustelėkite, norėdami matyti oro stebėjimo ir prognozės.

Norėdami pakeisti žemėlapį: spustelėkite ant žalios mygtukų su juodo kryžiaus žemyn,; žalią mygtuką su brūkšneliu, jei norite nutolinti; arba žalių rodyklių gretimoms žemėlapius.


METAR-TAF: